Airfield :
LOGIN :

Register | Disclaimer

   EN    FR    IT 

 










Legend :    VFR   Marginal VFR   IFR   Intensive IFR   Very Intensive IFR
Visi :
Ceiling :
>= 8 km
>= 3000ft
5 to 8 km
1000 to 3000 ft
1500m to 5 km
500 to 1000 ft
800 to 1500m
200 to 500 ft
< 800m
< 200 ft
Symbols :   Thunderstorms  Fog  Heavy snow  Heavy precipitations  Wind > 20 kt
SIGMETs :     Misc.  Thunderstorms  Icing  Turbulence  Mountain Waves  Volcanic Ashes







- Airport Elevation : 123 ft
- IATA code : BLQ


LIPE - Bologna Guglielmo Marconi

CURRENT METAR :
  • 200050Z VRB02KT CAVOK M00/M01 Q1012

EXPIRED METARs :
  • 200020Z 13004KT CAVOK 01/M00 Q1012
  • 192350Z VRB02KT CAVOK 02/01 Q1012
  • 192320Z 25004KT CAVOK 02/M00 Q1012
  • 192250Z 23005KT CAVOK 01/M01 Q1012
  • 192220Z 28004KT 230V300 CAVOK 02/00 Q1012

TAF TAF LIPE
Valid from the 20 at 00:00 until the 21 at 00:00 UTC


192300Z 2000/2024 VRB05KT 5000 BR FEW030
TEMPO 1900/1906 0800 FG BKN007
BECMG 2008/2011 6000
No reported NOTAMs for that airfield.
1 SIGMET reported for the Milano FIR (LIMM) :
 
Severe turbulence
LIMM SIGMET 2 VALID 192140/200140 LIMM
LIMM MILANO FIR SEV TURB OBS ENTIRE FIR FL080/200 STNR NC=



MET'MAP, your aeronautical weather chart ! - Copyright ORBIFLY December 2007 - Disclaimer

ORBIFLY MET'MAP TEAM :

Programming & Development : Alexandra Zaïnal
Concept & Development : Baudouin d'Aumeries
Co-Development & Prog : Marc-Olivier Méhu
Technical & hardware support : Manuel Goepfert

Contact : metmap@orbifly.com




SOURCES & CREDITS :

   NOAA